Time;durP1;ratioP1;P1;durP2;ratioP2;P2;SDS_P1;SDS_P2;PMS_P1;PMS_P2;Temp;Humidity;BMP_temperature;BMP_pressure;BME280_temperature;BME280_humidity;BME280_pressure;Samples;Min_cycle;Max_cycle;Signal;HPM_P1;HPM_P2
2022/07/12 00:01:30;;;;;;;5.32;2.92;;;16.80;95.70;;;;;;5050053;28;20040;-76
2022/07/12 00:03:56;;;;;;;4.10;2.90;;;16.80;95.80;;;;;;5048746;28;20074;-77
2022/07/12 00:06:22;;;;;;;2.85;2.17;;;16.80;95.90;;;;;;5026564;28;20040;-77
2022/07/12 00:08:47;;;;;;;3.53;2.58;;;16.80;96.00;;;;;;5045542;28;20032;-77
2022/07/12 00:11:13;;;;;;;4.05;3.20;;;16.80;96.30;;;;;;5048111;28;20032;-77
2022/07/12 00:13:39;;;;;;;3.22;2.50;;;16.80;96.40;;;;;;5033860;28;20029;-76
2022/07/12 00:16:04;;;;;;;4.05;3.00;;;16.80;96.80;;;;;;5043417;28;20025;-77
2022/07/12 00:18:30;;;;;;;6.22;2.72;;;16.70;96.60;;;;;;5045591;28;20103;-77
2022/07/12 00:20:55;;;;;;;7.30;3.00;;;16.70;96.70;;;;;;5027793;28;20037;-77
2022/07/12 00:23:21;;;;;;;3.38;2.47;;;16.80;96.90;;;;;;5046303;28;20033;-76
2022/07/12 00:25:47;;;;;;;3.70;3.00;;;16.70;96.80;;;;;;5047556;28;20029;-77
2022/07/12 00:28:12;;;;;;;2.47;2.25;;;16.70;96.90;;;;;;5033848;28;20039;-77
2022/07/12 00:30:38;;;;;;;3.47;2.80;;;16.70;97.00;;;;;;5027920;28;20455;-76
2022/07/12 00:33:04;;;;;;;2.90;2.35;;;16.70;97.20;;;;;;5047973;28;20482;-76
2022/07/12 00:35:29;;;;;;;3.67;2.35;;;16.60;97.20;;;;;;5041182;28;20510;-76
2022/07/12 00:37:55;;;;;;;3.75;2.78;;;16.60;97.20;;;;;;5047385;28;20529;-77
2022/07/12 00:40:21;;;;;;;4.05;2.95;;;16.60;97.40;;;;;;5031905;28;20028;-76
2022/07/12 00:42:47;;;;;;;4.82;2.83;;;16.50;97.60;;;;;;5029107;28;20028;-76
2022/07/12 00:45:12;;;;;;;3.67;2.60;;;16.50;97.70;;;;;;5051986;28;20056;-76
2022/07/12 00:47:43;;;;;;;7.32;4.93;;;16.50;97.80;;;;;;5043598;28;20104;-75
2022/07/12 00:50:17;;;;;;;5.28;3.13;;;16.40;97.80;;;;;;5046092;28;20079;-77
2022/07/12 00:52:45;;;;;;;5.28;3.70;;;16.40;97.80;;;;;;5030898;28;20025;-76
2022/07/12 00:55:12;;;;;;;4.75;2.70;;;16.40;98.00;;;;;;5053000;28;20052;-76
2022/07/12 00:57:39;;;;;;;4.47;2.45;;;16.40;98.00;;;;;;5039944;28;20033;-76
2022/07/12 01:00:08;;;;;;;5.47;2.83;;;16.40;98.10;;;;;;5042756;28;20025;-76
2022/07/12 01:02:35;;;;;;;3.85;2.63;;;16.30;98.40;;;;;;5032362;28;20032;-76
2022/07/12 01:05:02;;;;;;;5.03;2.60;;;16.30;98.20;;;;;;5050005;28;20711;-73
2022/07/12 01:07:28;;;;;;;3.30;2.45;;;16.30;98.30;;;;;;5046870;28;20061;-77
2022/07/12 01:09:54;;;;;;;3.45;2.47;;;16.30;98.30;;;;;;5055242;28;20433;-77
2022/07/12 01:12:24;;;;;;;3.40;2.70;;;16.20;98.40;;;;;;5050825;28;20029;-77
2022/07/12 01:14:51;;;;;;;4.95;2.67;;;16.20;98.40;;;;;;5046938;28;20025;-77
2022/07/12 01:17:20;;;;;;;2.95;2.30;;;16.20;98.40;;;;;;5048984;28;20034;-76
2022/07/12 01:19:47;;;;;;;3.78;2.40;;;16.10;98.40;;;;;;5047687;28;20513;-76
2022/07/12 01:22:15;;;;;;;2.90;2.35;;;16.10;98.60;;;;;;5041248;28;20397;-76
2022/07/12 01:24:41;;;;;;;4.03;2.47;;;16.00;98.60;;;;;;5055572;28;20039;-76
2022/07/12 01:27:08;;;;;;;2.92;2.63;;;16.00;98.70;;;;;;5051195;28;20037;-76
2022/07/12 01:29:34;;;;;;;3.78;2.50;;;16.00;98.80;;;;;;5034707;28;20024;-75
2022/07/12 01:34:50;;;;;;;3.30;2.17;;;15.90;98.90;;;;;;5033153;28;20075;-76
2022/07/12 01:37:17;;;;;;;3.22;2.78;;;15.90;99.10;;;;;;5030520;28;20558;-77
2022/07/12 01:39:47;;;;;;;4.53;2.38;;;15.90;99.10;;;;;;5045884;28;20048;-77
2022/07/12 01:42:13;;;;;;;3.80;2.67;;;15.90;99.20;;;;;;5037164;28;20021;-75
2022/07/12 01:44:38;;;;;;;2.88;2.30;;;15.90;99.30;;;;;;5045306;28;20367;-76
2022/07/12 01:47:04;;;;;;;3.38;2.33;;;15.80;99.40;;;;;;5031668;28;20029;-77
2022/07/12 01:49:30;;;;;;;2.75;2.33;;;15.80;99.50;;;;;;5045685;28;20044;-77
2022/07/12 01:51:55;;;;;;;3.88;2.33;;;15.80;99.60;;;;;;5051626;28;20103;-77
2022/07/12 01:54:23;;;;;;;4.40;2.67;;;15.80;99.70;;;;;;5048587;28;20549;-77
2022/07/12 01:56:48;;;;;;;3.53;2.95;;;15.70;99.70;;;;;;5033711;28;20013;-76
2022/07/12 01:59:14;;;;;;;3.60;2.53;;;15.70;99.90;;;;;;5041099;28;20060;-76
2022/07/12 02:01:40;;;;;;;6.88;3.40;;;15.70;99.90;;;;;;5046542;28;20481;-76
2022/07/12 02:04:07;;;;;;;4.95;3.50;;;15.70;99.90;;;;;;5047616;28;20032;-76
2022/07/12 02:06:33;;;;;;;5.82;4.07;;;15.70;99.90;;;;;;5042246;28;20029;-77
2022/07/12 02:08:59;;;;;;;5.53;4.45;;;15.70;99.90;;;;;;5029727;28;20029;-76
2022/07/12 02:11:25;;;;;;;7.85;4.80;;;15.70;99.90;;;;;;5040601;28;20040;-76
2022/07/12 02:13:50;;;;;;;5.50;4.82;;;15.70;99.90;;;;;;5047210;28;20022;-75
2022/07/12 02:16:16;;;;;;;6.63;4.80;;;15.60;99.90;;;;;;5031658;28;20025;-78
2022/07/12 02:18:42;;;;;;;6.30;5.15;;;15.60;99.90;;;;;;5047626;28;20029;-78
2022/07/12 02:21:08;;;;;;;6.53;4.63;;;15.60;99.90;;;;;;5032485;28;20428;-76
2022/07/12 02:23:33;;;;;;;8.27;4.70;;;15.60;99.90;;;;;;5042987;28;20026;-78
2022/07/12 02:25:59;;;;;;;5.47;3.95;;;15.60;99.90;;;;;;5059096;28;20029;-78
2022/07/12 02:28:25;;;;;;;6.00;4.10;;;15.50;99.90;;;;;;5063463;28;20401;-76
2022/07/12 02:30:50;;;;;;;5.40;4.07;;;15.50;99.90;;;;;;5035557;28;20033;-77
2022/07/12 02:33:16;;;;;;;4.80;3.75;;;15.50;99.90;;;;;;5052796;28;20025;-77
2022/07/12 02:35:43;;;;;;;7.93;4.28;;;15.40;99.90;;;;;;5054121;28;20028;-78
2022/07/12 02:38:08;;;;;;;6.50;3.85;;;15.40;99.90;;;;;;5033383;28;20052;-76
2022/07/12 02:43:21;;;;;;;7.93;3.15;;;15.30;99.90;;;;;;5046651;28;20028;-78
2022/07/12 02:45:47;;;;;;;6.55;3.22;;;15.30;99.90;;;;;;5053694;28;20025;-77
2022/07/12 02:48:13;;;;;;;3.97;2.85;;;15.30;99.90;;;;;;5053397;28;20517;-78
2022/07/12 02:50:39;;;;;;;3.67;2.97;;;15.30;99.90;;;;;;5051646;28;20666;-78
2022/07/12 02:53:06;;;;;;;4.68;3.20;;;15.30;99.90;;;;;;5057833;28;20421;-77
2022/07/12 02:55:32;;;;;;;5.13;3.10;;;15.30;99.90;;;;;;5051402;28;20466;-78
2022/07/12 02:57:57;;;;;;;3.35;2.80;;;15.20;99.90;;;;;;5047361;28;20018;-77
2022/07/12 03:00:23;;;;;;;5.93;2.90;;;15.20;99.90;;;;;;5054380;28;20025;-76
2022/07/12 03:02:49;;;;;;;3.20;2.60;;;15.20;99.90;;;;;;5051328;28;20025;-78
2022/07/12 03:05:15;;;;;;;5.13;2.70;;;15.20;99.90;;;;;;5048813;28;20033;-78
2022/07/12 03:07:40;;;;;;;5.60;3.30;;;15.20;99.90;;;;;;5041630;28;20028;-78
2022/07/12 03:10:07;;;;;;;3.78;2.78;;;15.10;99.90;;;;;;5052426;28;20043;-77
2022/07/12 03:12:33;;;;;;;4.90;2.63;;;15.10;99.90;;;;;;5044104;28;20029;-78
2022/07/12 03:14:59;;;;;;;3.13;2.50;;;15.10;99.90;;;;;;5054060;28;20527;-78
2022/07/12 03:17:24;;;;;;;3.67;2.72;;;15.10;99.90;;;;;;5026165;28;20025;-78
2022/07/12 03:19:50;;;;;;;4.03;2.65;;;15.10;99.90;;;;;;5049430;28;20432;-76
2022/07/12 03:22:16;;;;;;;7.93;3.00;;;15.00;99.90;;;;;;5028983;28;20436;-78
2022/07/12 03:24:41;;;;;;;3.75;2.78;;;15.00;99.90;;;;;;5048947;28;20029;-79
2022/07/12 03:27:07;;;;;;;5.85;3.17;;;15.00;99.90;;;;;;5051686;28;20029;-78
2022/07/12 03:29:33;;;;;;;4.43;3.10;;;15.00;99.90;;;;;;5050847;28;20025;-77
2022/07/12 03:31:58;;;;;;;6.45;2.90;;;15.00;99.90;;;;;;5051599;28;20059;-77
2022/07/12 03:34:37;;;;;;;3.63;2.78;;;15.00;99.90;;;;;;5032005;28;20044;-77
2022/07/12 03:37:03;;;;;;;5.03;2.97;;;15.00;99.90;;;;;;5051104;28;20017;-77
2022/07/12 03:39:29;;;;;;;3.42;2.80;;;15.00;99.90;;;;;;5048237;28;20025;-76
2022/07/12 03:41:55;;;;;;;3.40;2.72;;;15.00;99.90;;;;;;5035576;28;20025;-78
2022/07/12 03:44:20;;;;;;;5.15;3.00;;;15.00;99.90;;;;;;5046275;28;20025;-77
2022/07/12 03:46:47;;;;;;;3.83;2.80;;;15.00;99.90;;;;;;5044961;28;20100;-76
2022/07/12 03:49:13;;;;;;;3.70;2.97;;;15.10;99.90;;;;;;5056849;28;20108;-78
2022/07/12 03:51:39;;;;;;;5.45;3.00;;;15.10;99.90;;;;;;5035140;28;20121;-79
2022/07/12 03:54:07;;;;;;;4.25;2.78;;;15.10;99.90;;;;;;5062229;28;20044;-78
2022/07/12 03:59:20;;;;;;;3.92;3.05;;;15.10;99.90;;;;;;5051725;28;20020;-77
2022/07/12 04:01:46;;;;;;;3.80;2.83;;;15.20;99.90;;;;;;5039502;28;20031;-76
2022/07/12 04:04:11;;;;;;;3.95;2.80;;;15.10;99.90;;;;;;5043129;28;20029;-77
2022/07/12 04:06:38;;;;;;;5.05;3.22;;;15.20;99.90;;;;;;5030562;28;20029;-77
2022/07/12 04:09:07;;;;;;;4.25;2.63;;;15.20;99.90;;;;;;5047550;28;20575;-78
2022/07/12 04:11:33;;;;;;;4.80;3.17;;;15.30;99.90;;;;;;5042628;28;20021;-80
2022/07/12 04:13:59;;;;;;;4.07;3.25;;;15.30;99.90;;;;;;5030173;28;20025;-74
2022/07/12 04:16:25;;;;;;;5.03;3.13;;;15.30;99.90;;;;;;5045046;28;20227;-76
2022/07/12 04:18:51;;;;;;;5.78;3.45;;;15.30;99.90;;;;;;5041023;28;20021;-77
2022/07/12 04:21:17;;;;;;;7.32;3.38;;;15.40;99.90;;;;;;5033066;28;20078;-77
2022/07/12 04:23:43;;;;;;;5.15;3.83;;;15.40;99.90;;;;;;5039576;28;20036;-75
2022/07/12 04:26:08;;;;;;;4.93;3.67;;;15.50;99.90;;;;;;5053902;28;20041;-75
2022/07/12 04:28:35;;;;;;;7.05;4.22;;;15.80;99.90;;;;;;5026794;28;20111;-77
2022/07/12 04:31:01;;;;;;;6.47;4.22;;;15.80;99.90;;;;;;5043948;28;20017;-75
2022/07/12 04:33:26;;;;;;;6.50;3.83;;;15.90;99.90;;;;;;5052870;28;20480;-78
2022/07/12 04:35:52;;;;;;;7.05;3.72;;;16.00;99.90;;;;;;5047509;28;20230;-77
2022/07/12 04:38:18;;;;;;;6.30;3.55;;;16.00;99.90;;;;;;5042299;28;20018;-76
2022/07/12 04:40:43;;;;;;;5.82;3.30;;;16.00;99.90;;;;;;5024992;28;20025;-75
2022/07/12 04:43:09;;;;;;;3.88;3.33;;;16.10;99.90;;;;;;5046793;28;20092;-77
2022/07/12 04:45:34;;;;;;;4.72;3.13;;;16.10;99.90;;;;;;5032849;28;20026;-76
2022/07/12 04:48:00;;;;;;;6.13;3.15;;;16.20;99.90;;;;;;5034053;28;20028;-77
2022/07/12 04:50:26;;;;;;;8.07;3.22;;;16.30;99.90;;;;;;5044393;28;20521;-75
2022/07/12 04:52:51;;;;;;;4.90;3.17;;;16.40;99.90;;;;;;5025725;28;20427;-75
2022/07/12 04:55:17;;;;;;;5.45;3.72;;;16.60;99.90;;;;;;5042047;28;20028;-76
2022/07/12 04:57:52;;;;;;;5.25;3.17;;;16.70;99.90;;;;;;5045688;28;20103;-76
2022/07/12 05:00:17;;;;;;;5.53;3.22;;;16.80;99.90;;;;;;5041583;28;20028;-76
2022/07/12 05:02:43;;;;;;;18.70;3.47;;;16.90;99.90;;;;;;5040167;28;20024;-74
2022/07/12 05:05:09;;;;;;;5.03;2.78;;;17.00;99.50;;;;;;5046147;28;20036;-76
2022/07/12 05:07:34;;;;;;;4.50;3.15;;;17.10;99.20;;;;;;5041761;28;20484;-75
2022/07/12 05:10:00;;;;;;;3.42;2.95;;;17.10;99.00;;;;;;5046571;28;20079;-76
2022/07/12 05:12:26;;;;;;;5.30;2.90;;;17.30;98.80;;;;;;5039218;28;21446;-76
2022/07/12 05:14:51;;;;;;;3.90;3.05;;;17.30;98.40;;;;;;5045860;28;20021;-76
2022/07/12 05:17:17;;;;;;;5.68;3.40;;;17.40;98.10;;;;;;5047089;28;20025;-75
2022/07/12 05:19:51;;;;;;;7.18;3.08;;;17.50;97.90;;;;;;5041295;28;20028;-76
2022/07/12 05:22:17;;;;;;;4.55;2.72;;;17.60;97.60;;;;;;5049257;28;20033;-75
2022/07/12 05:24:43;;;;;;;4.05;3.25;;;17.70;97.50;;;;;;5032411;28;20043;-76
2022/07/12 05:27:09;;;;;;;7.30;4.10;;;17.80;97.30;;;;;;5041385;28;20029;-78
2022/07/12 05:29:35;;;;;;;6.68;4.07;;;17.90;97.20;;;;;;5030412;28;20079;-76
2022/07/12 05:32:01;;;;;;;5.93;4.60;;;18.10;97.00;;;;;;5045486;28;20641;-77
2022/07/12 05:34:27;;;;;;;6.53;4.47;;;18.20;96.80;;;;;;5029492;28;20084;-76
2022/07/12 05:36:56;;;;;;;6.25;4.43;;;18.40;96.70;;;;;;5048460;28;20462;-76
2022/07/12 05:39:21;;;;;;;9.02;5.10;;;18.50;96.30;;;;;;5039603;28;20037;-77
2022/07/12 05:41:47;;;;;;;5.68;4.32;;;18.60;96.00;;;;;;5046663;28;20060;-77
2022/07/12 05:44:15;;;;;;;7.93;4.50;;;18.70;95.80;;;;;;5043717;28;20422;-71
2022/07/12 05:46:41;;;;;;;7.10;4.28;;;18.80;95.60;;;;;;5038670;28;20032;-72
2022/07/12 05:49:07;;;;;;;5.18;3.97;;;18.90;95.40;;;;;;5041832;28;20028;-72
2022/07/12 05:54:17;;;;;;;5.00;3.97;;;19.10;94.90;;;;;;5043607;28;20032;-72
2022/07/12 05:56:43;;;;;;;8.45;4.95;;;19.20;94.90;;;;;;5046093;28;20033;-74
2022/07/12 05:59:09;;;;;;;6.05;4.40;;;19.20;94.50;;;;;;5025153;28;20078;-72
2022/07/12 06:01:35;;;;;;;7.47;4.55;;;19.40;94.50;;;;;;5040117;28;20056;-71
2022/07/12 06:04:01;;;;;;;14.57;5.00;;;19.50;94.40;;;;;;5024532;28;20052;-70
2022/07/12 06:06:27;;;;;;;5.80;4.30;;;19.60;94.20;;;;;;5046088;28;20033;-72
2022/07/12 06:09:03;;;;;;;7.93;4.90;;;19.70;94.00;;;;;;5043516;28;20120;-70
2022/07/12 06:11:28;;;;;;;7.00;4.50;;;19.80;93.70;;;;;;5052774;28;20036;-78
2022/07/12 06:13:54;;;;;;;7.35;4.40;;;19.80;93.40;;;;;;5039119;28;20022;-78
2022/07/12 06:16:19;;;;;;;5.78;4.45;;;19.80;93.30;;;;;;5040897;28;20017;-70
2022/07/12 06:18:45;;;;;;;6.57;4.82;;;19.80;93.20;;;;;;5041964;28;20033;-69
2022/07/12 06:21:11;;;;;;;6.78;4.57;;;19.80;93.40;;;;;;5043607;28;20028;-69
2022/07/12 06:23:36;;;;;;;6.38;4.72;;;19.80;93.50;;;;;;5044336;28;20033;-78
2022/07/12 06:26:02;;;;;;;9.15;4.18;;;19.90;93.60;;;;;;5053001;28;20028;-77
2022/07/12 06:28:28;;;;;;;6.50;4.07;;;19.90;93.60;;;;;;5051939;28;20024;-77
2022/07/12 06:30:53;;;;;;;8.75;4.05;;;20.10;93.60;;;;;;5052528;28;20135;-78
2022/07/12 06:33:19;;;;;;;7.00;3.65;;;20.20;93.40;;;;;;5034295;28;20025;-76
2022/07/12 06:35:57;;;;;;;5.10;4.05;;;20.30;93.10;;;;;;5059973;28;20109;-77
2022/07/12 06:38:22;;;;;;;6.03;3.72;;;20.40;93.00;;;;;;5038588;28;20029;-77
2022/07/12 06:40:48;;;;;;;9.50;3.92;;;20.50;92.80;;;;;;5056581;28;20529;-76
2022/07/12 06:43:13;;;;;;;6.25;3.72;;;20.60;92.70;;;;;;5056791;28;20021;-78
2022/07/12 06:45:40;;;;;;;5.80;3.90;;;20.70;92.60;;;;;;5030473;28;20022;-78
2022/07/12 06:48:15;;;;;;;5.95;3.65;;;20.70;92.40;;;;;;5035799;28;20517;-77
2022/07/12 06:50:41;;;;;;;5.72;3.53;;;20.70;92.30;;;;;;5053455;28;20381;-78
2022/07/12 06:53:06;;;;;;;7.15;3.40;;;20.80;92.30;;;;;;5054965;28;20021;-79
2022/07/12 06:55:32;;;;;;;6.55;4.20;;;20.80;92.40;;;;;;5056165;28;20067;-79
2022/07/12 06:57:57;;;;;;;6.07;4.10;;;20.80;92.20;;;;;;5053146;28;20051;-79
2022/07/12 07:00:29;;;;;;;7.55;4.25;;;20.70;92.30;;;;;;5056464;28;20051;-76
2022/07/12 07:02:55;;;;;;;6.78;3.88;;;20.70;92.50;;;;;;5053275;28;20025;-76
2022/07/12 07:05:20;;;;;;;5.60;3.90;;;20.70;92.60;;;;;;5052037;28;20099;-77
2022/07/12 07:07:46;;;;;;;6.15;4.10;;;20.60;92.70;;;;;;5047482;28;20052;-72
2022/07/12 07:10:12;;;;;;;5.28;3.50;;;20.40;92.90;;;;;;5037941;28;20404;-72
2022/07/12 07:12:37;;;;;;;7.03;3.75;;;20.30;93.20;;;;;;5039137;28;20382;-72
2022/07/12 07:15:04;;;;;;;8.48;3.65;;;20.20;93.50;;;;;;5044111;28;20103;-72
2022/07/12 07:17:29;;;;;;;5.95;4.63;;;20.20;93.90;;;;;;5045056;28;20026;-71
2022/07/12 07:19:55;;;;;;;7.07;4.53;;;20.10;94.00;;;;;;5035119;28;20589;-71
2022/07/12 07:22:21;;;;;;;8.05;4.47;;;20.10;94.30;;;;;;5022403;28;20033;-72
2022/07/12 07:24:46;;;;;;;4.55;3.75;;;20.00;94.50;;;;;;5042566;28;20040;-71
2022/07/12 07:27:12;;;;;;;6.63;4.28;;;19.90;94.60;;;;;;5027221;28;20447;-71
2022/07/12 07:32:21;;;;;;;;;;;19.90;94.80;;;;;;5052876;28;20664;-78
2022/07/12 07:34:47;;;;;;;5.70;3.30;;;19.90;94.90;;;;;;5050827;28;19935;-77
2022/07/12 07:37:13;;;;;;;5.85;3.75;;;20.00;94.80;;;;;;5043691;28;20504;-74
2022/07/12 07:39:39;;;;;;;6.97;3.83;;;20.10;94.70;;;;;;5053487;28;20366;-76
2022/07/12 07:42:05;;;;;;;4.65;3.80;;;20.20;94.50;;;;;;5055011;28;20013;-76
2022/07/12 07:44:31;;;;;;;7.75;3.88;;;20.10;94.00;;;;;;5050831;28;20504;-76
2022/07/12 07:46:56;;;;;;;4.45;2.63;;;20.20;93.90;;;;;;5052736;28;20097;-78
2022/07/12 07:49:22;;;;;;;4.43;2.80;;;20.20;93.90;;;;;;5050808;28;20038;-78
2022/07/12 07:51:57;;;;;;;4.78;2.63;;;20.20;93.70;;;;;;5034338;28;20393;-78
2022/07/12 07:54:23;;;;;;;5.93;3.10;;;20.30;93.80;;;;;;5049819;28;20087;-78
2022/07/12 07:56:48;;;;;;;5.32;2.38;;;20.30;93.70;;;;;;5044297;28;20024;-80
2022/07/12 07:59:14;;;;;;;5.40;3.03;;;20.40;93.50;;;;;;5028924;28;20123;-79
2022/07/12 08:01:42;;;;;;;4.78;2.78;;;20.50;93.40;;;;;;5038614;28;20024;-79
2022/07/12 08:04:12;;;;;;;5.00;2.67;;;20.60;93.40;;;;;;5035416;28;20032;-81
2022/07/12 08:06:44;;;;;;;6.30;3.15;;;20.60;93.20;;;;;;5057992;28;20037;-79
2022/07/12 08:09:11;;;;;;;6.07;3.10;;;20.70;93.20;;;;;;5056779;28;20025;-80
2022/07/12 08:11:37;;;;;;;4.43;2.97;;;20.60;93.40;;;;;;5053021;28;20029;-81
2022/07/12 08:14:04;;;;;;;4.05;3.20;;;20.60;93.40;;;;;;5051762;28;20132;-80
2022/07/12 08:16:30;;;;;;;3.75;2.78;;;20.70;93.40;;;;;;5040517;28;20025;-79
2022/07/12 08:18:56;;;;;;;3.75;2.78;;;20.70;93.30;;;;;;5038091;28;20363;-79
2022/07/12 08:21:22;;;;;;;5.55;3.25;;;20.70;93.20;;;;;;5039765;28;20075;-80
2022/07/12 08:23:48;;;;;;;3.35;2.80;;;20.80;93.20;;;;;;5048839;28;20025;-79
2022/07/12 08:26:13;;;;;;;5.70;2.63;;;20.80;92.90;;;;;;5061091;28;20029;-78
2022/07/12 08:28:39;;;;;;;4.88;3.00;;;20.90;93.00;;;;;;5038900;28;20119;-78
2022/07/12 08:31:05;;;;;;;5.82;2.67;;;20.90;92.80;;;;;;5048465;28;20033;-78
2022/07/12 08:33:41;;;;;;;4.35;3.00;;;21.00;92.80;;;;;;5036743;28;20033;-78
2022/07/12 08:36:08;;;;;;;4.65;2.67;;;21.10;92.10;;;;;;5048550;28;20095;-77
2022/07/12 08:38:37;;;;;;;4.55;2.63;;;21.10;92.20;;;;;;5053788;28;20021;-77
2022/07/12 08:41:05;;;;;;;2.95;2.20;;;21.20;91.90;;;;;;5055694;28;20031;-79
2022/07/12 08:43:35;;;;;;;4.07;2.40;;;21.40;91.60;;;;;;5055922;28;20033;-79
2022/07/12 08:46:11;;;;;;;4.88;2.45;;;21.40;91.30;;;;;;5036511;28;20504;-78
2022/07/12 08:48:38;;;;;;;4.80;2.10;;;21.30;91.40;;;;;;5050725;28;20045;-78
2022/07/12 08:51:07;;;;;;;7.22;3.00;;;21.40;91.50;;;;;;5033083;28;20044;-77
2022/07/12 08:53:33;;;;;;;3.45;2.05;;;21.50;91.50;;;;;;5032375;28;20960;-77
2022/07/12 08:56:04;;;;;;;2.80;2.05;;;21.50;91.30;;;;;;5034777;28;20017;-77
2022/07/12 08:58:30;;;;;;;3.75;2.10;;;21.60;91.20;;;;;;5048064;28;20152;-78
2022/07/12 09:00:56;;;;;;;2.85;2.50;;;21.70;91.30;;;;;;5042855;28;20095;-77
2022/07/12 09:03:21;;;;;;;3.17;1.88;;;21.70;90.90;;;;;;5045864;28;20040;-78
2022/07/12 09:05:51;;;;;;;5.38;1.95;;;21.90;90.60;;;;;;5045483;28;20096;-77
2022/07/12 09:08:18;;;;;;;4.00;2.10;;;21.90;90.60;;;;;;5048217;28;20048;-76
2022/07/12 09:10:50;;;;;;;2.30;1.88;;;22.00;90.10;;;;;;5050390;28;20465;-77
2022/07/12 09:13:17;;;;;;;2.92;1.60;;;21.90;89.40;;;;;;5048490;28;20052;-77
2022/07/12 09:15:42;;;;;;;2.38;1.60;;;21.90;89.20;;;;;;5050556;28;20021;-78
2022/07/12 09:18:22;;;;;;;3.33;1.80;;;21.90;88.80;;;;;;5051460;28;20075;-78
2022/07/12 09:20:51;;;;;;;3.50;2.10;;;22.00;88.70;;;;;;5045542;28;20100;-77
2022/07/12 09:23:17;;;;;;;1.98;1.60;;;22.00;87.30;;;;;;5046827;28;20025;-78
2022/07/12 09:25:48;;;;;;;2.28;1.55;;;22.10;87.00;;;;;;5049408;28;20041;-78
2022/07/12 09:28:18;;;;;;;3.88;2.05;;;22.10;86.40;;;;;;5032894;28;20025;-78
2022/07/12 09:30:49;;;;;;;1.88;1.40;;;22.00;86.20;;;;;;5050634;28;20021;-77
2022/07/12 09:36:06;;;;;;;2.70;1.33;;;22.10;85.70;;;;;;5039796;28;20036;-77
2022/07/12 09:38:50;;;;;;;3.13;2.17;;;22.20;85.10;;;;;;5043410;28;20924;-77
2022/07/12 09:41:23;;;;;;;2.72;1.70;;;22.10;84.60;;;;;;5052211;28;20035;-77
2022/07/12 09:43:49;;;;;;;3.00;1.63;;;22.10;84.70;;;;;;5032626;28;20040;-77
2022/07/12 09:46:16;;;;;;;3.78;1.88;;;22.10;83.80;;;;;;5046469;28;20092;-77
2022/07/12 09:48:44;;;;;;;3.00;1.40;;;22.10;83.30;;;;;;5043754;28;20035;-77
2022/07/12 09:51:20;;;;;;;2.80;1.45;;;22.20;83.50;;;;;;5053012;28;20440;-78
2022/07/12 09:53:48;;;;;;;1.52;1.30;;;22.20;82.70;;;;;;5048346;28;20079;-77
2022/07/12 09:56:20;;;;;;;3.40;1.10;;;22.30;83.00;;;;;;5047176;28;20024;-77
2022/07/12 09:58:53;;;;;;;1.23;1.08;;;22.30;82.50;;;;;;5033347;28;20021;-77
2022/07/12 10:01:20;;;;;;;1.95;1.38;;;22.30;82.70;;;;;;5045710;28;20044;-78
2022/07/12 10:03:47;;;;;;;2.08;1.00;;;22.30;83.10;;;;;;5035978;28;20025;-76
2022/07/12 10:06:19;;;;;;;1.30;1.05;;;22.30;82.50;;;;;;5048339;28;20135;-77
2022/07/12 10:08:45;;;;;;;1.40;0.90;;;22.30;82.00;;;;;;5032361;28;20029;-77
2022/07/12 10:11:13;;;;;;;1.30;1.20;;;22.30;81.90;;;;;;5035712;28;20386;-77
2022/07/12 10:13:43;;;;;;;2.22;1.20;;;22.30;81.50;;;;;;5040376;28;20017;-78
2022/07/12 10:16:12;;;;;;;2.15;1.77;;;22.40;81.80;;;;;;5025909;28;20028;-77
2022/07/12 10:18:38;;;;;;;2.65;1.70;;;22.40;81.80;;;;;;5049134;28;20024;-75
2022/07/12 10:21:19;;;;;;;3.60;1.77;;;22.50;81.30;;;;;;5048795;28;20021;-76
2022/07/12 10:23:47;;;;;;;4.13;1.83;;;22.50;81.30;;;;;;5049798;28;20029;-76
2022/07/12 10:26:16;;;;;;;1.33;1.10;;;22.50;80.90;;;;;;5054550;28;20025;-76
2022/07/12 10:29:02;;;;;;;4.05;1.42;;;22.50;80.20;;;;;;5046410;28;20144;-77
2022/07/12 10:31:39;;;;;;;1.33;1.20;;;22.60;79.90;;;;;;5046679;28;20033;-76
2022/07/12 10:34:23;;;;;;;2.42;1.90;;;22.60;79.60;;;;;;5038262;28;20022;-77
2022/07/12 10:36:55;;;;;;;2.70;1.55;;;22.70;79.40;;;;;;5040683;28;20017;-76
2022/07/12 10:39:36;;;;;;;3.33;2.08;;;22.70;79.80;;;;;;5042472;28;20032;-76
2022/07/12 10:42:07;;;;;;;2.35;2.05;;;22.70;81.20;;;;;;5029646;28;20032;-75
2022/07/12 10:44:42;;;;;;;2.35;1.95;;;22.80;81.30;;;;;;5047567;28;20025;-77
2022/07/12 10:47:09;;;;;;;3.63;2.80;;;22.80;81.20;;;;;;5038758;28;20021;-76
2022/07/12 10:50:08;;;;;;;2.70;2.10;;;22.80;80.60;;;;;;5045369;28;20080;-77
2022/07/12 10:52:29;;;;;;;4.05;2.17;;;22.80;80.50;;;;;;5039876;28;20115;-76
2022/07/12 10:54:55;;;;;;;4.72;2.70;;;22.80;80.30;;;;;;5044004;28;20036;-76
2022/07/12 10:57:43;;;;;;;2.97;2.67;;;22.80;80.10;;;;;;5042972;28;20025;-77
2022/07/12 11:00:11;;;;;;;3.65;2.25;;;22.90;80.10;;;;;;5054845;28;20017;-75
2022/07/12 11:02:37;;;;;;;1.70;1.35;;;22.90;80.00;;;;;;5055521;28;20116;-76
2022/07/12 11:05:03;;;;;;;2.40;1.35;;;23.00;80.10;;;;;;5056800;28;20624;-76
2022/07/12 11:07:30;;;;;;;3.70;2.03;;;23.00;80.10;;;;;;5057025;28;20115;-77
2022/07/12 11:09:56;;;;;;;3.05;1.70;;;23.00;80.10;;;;;;5034040;28;20143;-77
2022/07/12 11:12:31;;;;;;;1.90;1.48;;;22.90;80.00;;;;;;5055816;28;20103;-77
2022/07/12 11:15:02;;;;;;;3.05;1.60;;;22.80;80.30;;;;;;5050447;28;20041;-77
2022/07/12 11:17:36;;;;;;;4.57;1.58;;;22.90;80.10;;;;;;5046483;28;20539;-77
2022/07/12 11:20:09;;;;;;;1.92;1.35;;;22.90;79.80;;;;;;5051270;28;20351;-75
2022/07/12 11:22:36;;;;;;;4.18;1.30;;;22.80;79.80;;;;;;5053058;28;20024;-76
2022/07/12 11:25:02;;;;;;;2.40;1.48;;;22.80;80.10;;;;;;5057173;28;20024;-76
2022/07/12 11:27:28;;;;;;;4.40;1.30;;;22.90;80.10;;;;;;5032296;28;20033;-76
2022/07/12 11:30:04;;;;;;;3.13;1.50;;;22.90;79.70;;;;;;5039758;28;20071;-75
2022/07/12 11:32:41;;;;;;;3.17;1.20;;;22.90;79.40;;;;;;5055571;28;20401;-75
2022/07/12 11:35:25;;;;;;;2.47;1.35;;;23.00;78.90;;;;;;5042041;28;20449;-75
2022/07/12 11:37:56;;;;;;;1.60;1.42;;;22.90;78.60;;;;;;5055014;28;20147;-76
2022/07/12 11:40:34;;;;;;;4.38;2.00;;;23.00;78.60;;;;;;5063401;28;20038;-76
2022/07/12 11:43:01;;;;;;;2.15;0.90;;;23.00;78.30;;;;;;5052654;28;20074;-77
2022/07/12 11:45:35;;;;;;;2.42;1.10;;;23.00;78.00;;;;;;5050205;28;20064;-77
2022/07/12 11:48:21;;;;;;;1.40;1.10;;;23.00;78.30;;;;;;5048858;28;20548;-77
2022/07/12 11:51:07;;;;;;;3.15;1.58;;;23.00;78.70;;;;;;5056679;28;20024;-76
2022/07/12 11:53:42;;;;;;;2.70;1.20;;;23.10;78.70;;;;;;5029414;28;20584;-77
2022/07/12 11:56:11;;;;;;;2.55;1.02;;;23.10;78.40;;;;;;5059920;28;20029;-76
2022/07/12 11:58:39;;;;;;;4.63;1.00;;;23.10;77.70;;;;;;5053694;28;20375;-77
2022/07/12 12:01:10;;;;;;;1.70;0.98;;;23.10;77.80;;;;;;5052096;28;20025;-77
2022/07/12 12:03:44;;;;;;;1.55;0.90;;;23.20;77.70;;;;;;5057092;28;20573;-72
2022/07/12 12:06:10;;;;;;;1.25;0.70;;;23.20;77.30;;;;;;5050217;28;20029;-72
2022/07/12 12:08:36;;;;;;;2.17;0.90;;;23.20;76.90;;;;;;5057634;28;20462;-72
2022/07/12 12:11:02;;;;;;;3.03;1.15;;;23.20;76.40;;;;;;5052441;28;20385;-68
2022/07/12 12:13:30;;;;;;;2.00;0.90;;;23.30;76.90;;;;;;5034483;28;20079;-70
2022/07/12 12:16:05;;;;;;;1.77;1.10;;;23.40;76.40;;;;;;5052923;28;20543;-68
2022/07/12 12:18:38;;;;;;;1.80;1.05;;;23.50;76.20;;;;;;5054495;28;20390;-69
2022/07/12 12:21:08;;;;;;;;;;;23.60;75.70;;;;;;5052946;28;20106;-70
2022/07/12 12:23:36;;;;;;;1.67;0.95;;;23.60;74.90;;;;;;5054553;28;19905;-68
2022/07/12 12:26:12;;;;;;;1.08;0.95;;;23.70;74.80;;;;;;5054577;28;20567;-68
2022/07/12 12:28:51;;;;;;;2.55;1.10;;;23.70;74.10;;;;;;5036484;28;20393;-70
2022/07/12 12:31:20;;;;;;;1.40;0.98;;;23.80;75.30;;;;;;5054277;28;20028;-69
2022/07/12 12:33:56;;;;;;;1.88;0.80;;;23.70;75.00;;;;;;5060308;28;20029;-69
2022/07/12 12:36:48;;;;;;;1.30;0.80;;;23.80;74.90;;;;;;5054564;28;20028;-70
2022/07/12 12:39:29;;;;;;;1.65;1.00;;;23.80;74.10;;;;;;5052166;28;20120;-69
2022/07/12 12:41:55;;;;;;;4.35;0.90;;;23.80;73.80;;;;;;5054742;28;20064;-69
2022/07/12 12:44:33;;;;;;;1.85;1.10;;;23.80;73.90;;;;;;5036302;28;20059;-72
2022/07/12 12:50:09;;;;;;;;;;;23.80;73.30;;;;;;5055557;28;20082;-71
2022/07/12 12:52:48;;;;;;;2.55;1.17;;;23.90;72.40;;;;;;5051775;28;19908;-72
2022/07/12 12:55:13;;;;;;;1.80;0.75;;;23.90;72.00;;;;;;5036785;28;20036;-71
2022/07/12 12:57:39;;;;;;;2.03;1.00;;;23.80;72.00;;;;;;5042214;28;20033;-71
2022/07/12 13:00:05;;;;;;;1.15;0.65;;;23.80;71.40;;;;;;5038667;28;20060;-72
2022/07/12 13:02:30;;;;;;;1.75;1.00;;;23.80;71.60;;;;;;5037511;28;20462;-71
2022/07/12 13:04:56;;;;;;;1.50;0.90;;;23.80;71.80;;;;;;5066778;28;20060;-72
2022/07/12 13:07:22;;;;;;;1.58;0.88;;;23.80;72.10;;;;;;5048270;28;20037;-72
2022/07/12 13:09:47;;;;;;;2.65;1.00;;;23.80;72.30;;;;;;5048388;28;20143;-71
2022/07/12 13:12:13;;;;;;;2.70;1.00;;;23.90;72.40;;;;;;5046589;28;20028;-72